createdAt,value
2023-06-18T00:00:16.775Z,11.18
2023-06-18T00:02:22.000Z,12.30
2023-06-18T00:04:07.308Z,12.44
2023-06-18T00:05:54.943Z,11.35
2023-06-18T00:07:31.775Z,10.92
2023-06-18T00:09:06.888Z,10.41
2023-06-18T00:11:01.893Z,11.41
2023-06-18T00:12:42.821Z,12.11
2023-06-18T00:14:28.086Z,12.82
2023-06-18T00:16:13.119Z,12.53
2023-06-18T00:17:44.881Z,13.23
2023-06-18T00:19:23.522Z,14.11
2023-06-18T00:21:09.836Z,13.86
2023-06-18T00:22:32.897Z,13.55
2023-06-18T00:24:02.132Z,13.97
2023-06-18T00:25:47.485Z,14.13
2023-06-18T00:27:28.917Z,13.65
2023-06-18T00:29:05.252Z,15.19
2023-06-18T00:30:57.060Z,15.14
2023-06-18T00:32:31.128Z,16.31
2023-06-18T00:34:08.430Z,15.34
2023-06-18T00:35:54.234Z,14.61
2023-06-18T00:37:40.781Z,14.42
2023-06-18T00:39:17.814Z,14.60
2023-06-18T00:40:51.517Z,14.66
2023-06-18T00:42:36.577Z,15.43
2023-06-18T00:44:21.430Z,14.31
2023-06-18T00:46:07.011Z,14.78
2023-06-18T00:47:55.876Z,14.78
2023-06-18T00:49:36.881Z,14.27
2023-06-18T00:51:19.111Z,14.91
2023-06-18T00:53:05.382Z,14.09
2023-06-18T00:54:51.967Z,14.67
2023-06-18T00:56:27.520Z,14.52
2023-06-18T00:58:09.022Z,14.78
2023-06-18T00:59:33.703Z,15.19
2023-06-18T01:00:59.836Z,14.61
2023-06-18T01:02:40.114Z,13.94
2023-06-18T01:04:06.158Z,14.26
2023-06-18T01:05:52.262Z,15.14
2023-06-18T01:07:40.450Z,15.06
2023-06-18T01:09:33.836Z,15.57
2023-06-18T01:11:08.683Z,14.85
2023-06-18T01:12:42.054Z,14.97
2023-06-18T01:14:22.350Z,15.38
2023-06-18T01:16:06.864Z,14.79
2023-06-18T01:17:43.742Z,14.44
2023-06-18T01:19:17.053Z,14.22
2023-06-18T01:20:57.974Z,15.60
2023-06-18T01:22:31.808Z,14.95
2023-06-18T01:24:07.370Z,16.47
2023-06-18T01:26:01.327Z,15.14
2023-06-18T01:27:36.596Z,15.87
2023-06-18T01:29:11.678Z,15.53
2023-06-18T01:30:58.527Z,15.16
2023-06-18T01:32:34.572Z,15.87
2023-06-18T01:34:17.157Z,16.15
2023-06-18T01:35:52.847Z,15.03
2023-06-18T01:37:15.925Z,15.53
2023-06-18T01:39:05.955Z,15.28
2023-06-18T01:40:39.915Z,14.10
2023-06-18T01:42:13.236Z,13.90
2023-06-18T01:43:59.265Z,15.00
2023-06-18T01:45:25.670Z,14.55
2023-06-18T01:47:11.552Z,15.04
2023-06-18T01:48:36.838Z,15.36
2023-06-18T01:50:19.971Z,15.35
2023-06-18T01:51:56.721Z,15.07
2023-06-18T01:53:26.245Z,15.61
2023-06-18T01:55:02.549Z,14.64
2023-06-18T01:56:36.767Z,15.11
2023-06-18T01:58:21.644Z,13.73
2023-06-18T01:59:57.789Z,14.86
2023-06-18T02:01:22.038Z,15.37
2023-06-18T02:03:02.908Z,15.82
2023-06-18T02:04:27.258Z,15.27
2023-06-18T02:06:06.069Z,15.24
2023-06-18T02:07:47.741Z,15.28
2023-06-18T02:09:33.018Z,15.10
2023-06-18T02:11:16.813Z,14.68
2023-06-18T02:12:53.044Z,15.13
2023-06-18T02:14:27.522Z,15.76
2023-06-18T02:16:08.918Z,15.96
2023-06-18T02:17:45.148Z,16.38
2023-06-18T02:19:28.084Z,15.17
2023-06-18T02:21:13.703Z,14.70
2023-06-18T02:23:00.872Z,15.09
2023-06-18T02:24:37.294Z,15.06
2023-06-18T02:26:10.785Z,15.83
2023-06-18T02:27:52.369Z,14.92
2023-06-18T02:29:27.852Z,15.99
2023-06-18T02:31:19.257Z,16.05
2023-06-18T02:33:05.738Z,15.39
2023-06-18T02:34:54.970Z,15.63
2023-06-18T02:36:21.558Z,15.54
2023-06-18T02:37:56.314Z,15.41
2023-06-18T02:39:29.880Z,15.57
2023-06-18T02:40:57.558Z,16.20
2023-06-18T02:42:33.008Z,15.95
2023-06-18T02:44:14.571Z,15.35
2023-06-18T02:45:59.556Z,16.39
2023-06-18T02:47:29.143Z,16.04
2023-06-18T02:49:00.545Z,15.98
2023-06-18T02:50:34.582Z,15.70
2023-06-18T02:52:11.000Z,15.66
2023-06-18T02:54:04.844Z,15.12
2023-06-18T02:55:45.589Z,14.80
2023-06-18T02:57:30.943Z,14.30
2023-06-18T02:59:15.629Z,14.45
2023-06-18T03:00:46.609Z,14.28
2023-06-18T03:02:22.144Z,14.01
2023-06-18T03:03:55.999Z,14.40
2023-06-18T03:05:42.576Z,14.45
2023-06-18T03:07:12.981Z,15.11
2023-06-18T03:08:55.908Z,14.22
2023-06-18T03:10:29.424Z,14.03
2023-06-18T03:12:16.313Z,13.86
2023-06-18T03:14:05.585Z,13.48
2023-06-18T03:15:46.333Z,12.01
2023-06-18T03:17:20.476Z,12.20
2023-06-18T03:19:13.910Z,13.22
2023-06-18T03:20:53.821Z,13.19
2023-06-18T03:22:34.689Z,13.46
2023-06-18T03:24:24.141Z,13.84
2023-06-18T03:26:10.542Z,13.22
2023-06-18T03:28:04.086Z,12.63
2023-06-18T03:29:51.347Z,11.96
2023-06-18T03:31:36.968Z,11.92
2023-06-18T03:33:25.360Z,12.14
2023-06-18T03:35:15.912Z,12.83
2023-06-18T03:37:10.843Z,12.93
2023-06-18T03:38:58.860Z,12.90
2023-06-18T03:40:44.849Z,12.23
2023-06-18T03:42:20.014Z,11.42
2023-06-18T03:44:14.935Z,11.84
2023-06-18T03:45:51.402Z,12.00
2023-06-18T03:47:37.341Z,12.56
2023-06-18T03:49:13.464Z,11.11
2023-06-18T03:51:07.337Z,10.92
2023-06-18T03:53:03.208Z,10.96
2023-06-18T03:54:56.947Z,10.43
2023-06-18T03:56:38.412Z,10.63
2023-06-18T03:58:11.908Z,10.32
2023-06-18T03:59:54.039Z,10.54
2023-06-18T04:01:29.687Z,10.39
2023-06-18T04:03:11.487Z,10.64
2023-06-18T04:04:56.793Z,10.11
2023-06-18T04:06:28.618Z,10.46
2023-06-18T04:07:57.811Z,9.67
2023-06-18T04:09:31.633Z,8.35
2023-06-18T04:11:01.325Z,7.77
2023-06-18T04:12:46.813Z,7.74
2023-06-18T04:14:27.236Z,8.07
2023-06-18T04:16:21.063Z,8.88
2023-06-18T04:18:07.016Z,9.02
2023-06-18T04:20:01.806Z,9.09
2023-06-18T04:21:47.055Z,9.44
2023-06-18T04:23:28.495Z,10.44
2023-06-18T04:25:09.128Z,9.67
2023-06-18T04:26:42.828Z,10.17
2023-06-18T04:28:28.050Z,10.13
2023-06-18T04:30:13.853Z,9.98
2023-06-18T04:31:49.502Z,9.56
2023-06-18T04:33:23.273Z,9.62
2023-06-18T04:34:57.588Z,8.70
2023-06-18T04:36:42.836Z,7.82
2023-06-18T04:38:15.909Z,7.58
2023-06-18T04:39:50.150Z,8.05
2023-06-18T04:41:34.394Z,7.99
2023-06-18T04:43:22.660Z,7.61
2023-06-18T04:45:03.405Z,8.02
2023-06-18T04:46:54.274Z,8.48
2023-06-18T04:48:24.429Z,8.73
2023-06-18T04:50:17.488Z,9.43
2023-06-18T04:52:05.871Z,9.14
2023-06-18T04:53:30.551Z,9.90
2023-06-18T04:55:20.217Z,9.28
2023-06-18T04:56:53.900Z,9.57
2023-06-18T04:58:29.820Z,10.62
2023-06-18T05:00:10.700Z,10.31
2023-06-18T05:01:47.978Z,10.17
2023-06-18T05:03:22.103Z,10.64
2023-06-18T05:05:07.493Z,9.53
2023-06-18T05:06:44.716Z,10.57
2023-06-18T05:08:28.215Z,11.24
2023-06-18T05:10:21.997Z,10.74
2023-06-18T05:12:03.484Z,11.13
2023-06-18T05:13:36.897Z,11.15
2023-06-18T05:15:10.523Z,11.44
2023-06-18T05:16:40.864Z,11.17
2023-06-18T05:18:17.450Z,11.37
2023-06-18T05:19:51.056Z,11.14
2023-06-18T05:21:28.724Z,11.14
2023-06-18T05:23:23.308Z,10.75
2023-06-18T05:24:50.250Z,11.48
2023-06-18T05:26:35.571Z,11.74
2023-06-18T05:28:22.349Z,10.95
2023-06-18T05:29:55.821Z,11.07
2023-06-18T05:31:29.489Z,10.86
2023-06-18T05:33:09.776Z,10.42
2023-06-18T05:34:44.381Z,10.91
2023-06-18T05:36:17.802Z,11.88
2023-06-18T05:37:53.460Z,12.17
2023-06-18T05:39:29.839Z,12.81
2023-06-18T05:41:22.945Z,12.39
2023-06-18T05:43:10.801Z,12.50
2023-06-18T05:45:03.322Z,11.97
2023-06-18T05:46:36.996Z,11.50
2023-06-18T05:48:26.248Z,11.10
2023-06-18T05:50:02.929Z,11.48
2023-06-18T05:51:48.979Z,11.87
2023-06-18T05:53:14.652Z,11.21
2023-06-18T05:54:49.029Z,11.86
2023-06-18T05:56:10.849Z,12.99
2023-06-18T05:58:02.501Z,13.26
2023-06-18T05:59:55.872Z,13.00
2023-06-18T06:01:40.612Z,13.35
2023-06-18T06:03:25.906Z,14.45
2023-06-18T06:05:10.871Z,14.77
2023-06-18T06:06:52.379Z,14.64
2023-06-18T06:08:25.430Z,14.97
2023-06-18T06:10:07.570Z,15.55
2023-06-18T06:11:42.413Z,15.37
2023-06-18T06:13:22.282Z,15.00
2023-06-18T06:15:20.986Z,14.56
2023-06-18T06:17:08.865Z,14.52
2023-06-18T06:18:54.729Z,14.35
2023-06-18T06:20:30.427Z,14.17
2023-06-18T06:22:24.880Z,14.41
2023-06-18T06:24:10.577Z,15.94
2023-06-18T06:25:47.610Z,14.18
2023-06-18T06:27:28.775Z,12.29
2023-06-18T06:29:05.909Z,12.43
2023-06-18T06:30:51.847Z,13.71
2023-06-18T06:32:37.173Z,14.23
2023-06-18T06:34:22.606Z,13.25
2023-06-18T06:35:56.518Z,10.93
2023-06-18T06:37:40.022Z,11.76
2023-06-18T06:39:25.343Z,11.98
2023-06-18T06:40:59.195Z,12.73
2023-06-18T06:42:39.825Z,12.19
2023-06-18T06:44:37.669Z,12.02
2023-06-18T06:47:01.752Z,13.01
2023-06-18T06:49:08.395Z,11.76
2023-06-18T06:51:23.606Z,12.79
2023-06-18T06:53:11.770Z,10.78
2023-06-18T06:54:53.072Z,11.42
2023-06-18T06:56:33.595Z,10.85
2023-06-18T06:58:08.648Z,11.68
2023-06-18T06:59:42.274Z,11.55
2023-06-18T07:01:25.067Z,11.53
2023-06-18T07:03:10.750Z,11.33
2023-06-18T07:04:59.040Z,12.53
2023-06-18T07:06:39.709Z,12.46
2023-06-18T07:08:27.485Z,13.08
2023-06-18T07:10:01.514Z,12.78
2023-06-18T07:11:46.677Z,12.63
2023-06-18T07:13:22.727Z,12.05
2023-06-18T07:15:07.656Z,12.19
2023-06-18T07:16:41.169Z,11.17
2023-06-18T07:18:16.773Z,11.78
2023-06-18T07:20:10.904Z,12.30
2023-06-18T07:21:46.850Z,12.79
2023-06-18T07:23:31.887Z,11.52
2023-06-18T07:25:07.151Z,11.42
2023-06-18T07:26:42.817Z,10.55
2023-06-18T07:28:27.626Z,10.22
2023-06-18T07:30:21.503Z,10.11
2023-06-18T07:31:58.336Z,10.98
2023-06-18T07:33:43.021Z,11.07
2023-06-18T07:35:24.873Z,9.97
2023-06-18T07:36:58.658Z,9.68
2023-06-18T07:38:20.274Z,9.49
2023-06-18T07:39:55.271Z,8.44
2023-06-18T07:41:40.425Z,9.39
2023-06-18T07:43:23.862Z,9.83
2023-06-18T07:44:59.154Z,9.79
2023-06-18T07:46:44.379Z,10.13
2023-06-18T07:48:29.339Z,9.40
2023-06-18T07:50:07.252Z,8.70
2023-06-18T07:51:52.606Z,9.12
2023-06-18T07:53:33.369Z,9.05
2023-06-18T07:55:14.365Z,8.86
2023-06-18T07:56:47.744Z,8.59
2023-06-18T07:58:37.851Z,8.85
2023-06-18T08:00:23.238Z,9.13
2023-06-18T08:01:57.433Z,9.40
2023-06-18T08:03:30.605Z,10.31
2023-06-18T08:05:06.822Z,11.19
2023-06-18T08:06:54.404Z,11.07
2023-06-18T08:08:30.046Z,10.43
2023-06-18T08:10:23.140Z,10.36
2023-06-18T08:12:18.899Z,10.31
2023-06-18T08:14:03.802Z,10.01
2023-06-18T08:15:39.890Z,9.44
2023-06-18T08:17:06.466Z,9.89
2023-06-18T08:18:39.705Z,9.98
2023-06-18T08:20:13.059Z,9.95
2023-06-18T08:21:54.366Z,9.84
2023-06-18T08:23:27.848Z,10.09
2023-06-18T08:25:14.017Z,10.43
2023-06-18T08:26:59.329Z,10.08
2023-06-18T08:28:45.422Z,10.01
2023-06-18T08:30:29.983Z,9.99
2023-06-18T08:32:05.755Z,9.47
2023-06-18T08:33:36.821Z,9.90
2023-06-18T08:35:02.260Z,9.51
2023-06-18T08:36:47.786Z,9.27
2023-06-18T08:38:33.081Z,9.58
2023-06-18T08:40:13.450Z,8.71
2023-06-18T08:41:47.157Z,9.25
2023-06-18T08:43:29.614Z,8.78
2023-06-18T08:45:23.543Z,9.01
2023-06-18T08:47:18.878Z,8.74
2023-06-18T08:49:02.801Z,9.06
2023-06-18T08:50:47.805Z,9.00
2023-06-18T08:52:37.877Z,8.86
2023-06-18T08:54:02.244Z,9.42
2023-06-18T08:55:47.215Z,9.54
2023-06-18T08:57:32.295Z,8.73
2023-06-18T08:59:07.912Z,9.27
2023-06-18T09:00:53.245Z,8.93
2023-06-18T09:02:38.380Z,8.80
2023-06-18T09:04:23.782Z,9.58
2023-06-18T09:06:17.891Z,9.07
2023-06-18T09:07:53.919Z,8.33
2023-06-18T09:09:29.544Z,9.25
2023-06-18T09:11:14.788Z,8.77
2023-06-18T09:13:08.023Z,8.62
2023-06-18T09:14:41.781Z,8.90
2023-06-18T09:16:14.789Z,8.99
2023-06-18T09:18:00.996Z,9.19
2023-06-18T09:19:25.189Z,9.06
2023-06-18T09:20:58.904Z,8.84
2023-06-18T09:22:32.332Z,8.82
2023-06-18T09:24:18.336Z,8.75
2023-06-18T09:25:40.391Z,8.49
2023-06-18T09:27:15.860Z,8.54
2023-06-18T09:28:57.045Z,8.62
2023-06-18T09:30:33.018Z,8.40
2023-06-18T09:32:04.366Z,8.69
2023-06-18T09:33:37.765Z,8.49
2023-06-18T09:35:31.886Z,9.14
2023-06-18T09:37:07.424Z,8.20
2023-06-18T09:38:40.811Z,8.95
2023-06-18T09:40:21.270Z,8.44
2023-06-18T09:41:57.585Z,8.62
2023-06-18T09:43:19.024Z,7.88
2023-06-18T09:44:52.637Z,8.02
2023-06-18T09:46:35.035Z,7.54
2023-06-18T09:48:04.375Z,7.91
2023-06-18T09:49:48.759Z,8.08
2023-06-18T09:51:36.634Z,8.41
2023-06-18T09:53:22.109Z,8.20
2023-06-18T09:55:07.933Z,8.45
2023-06-18T09:56:32.246Z,8.22
2023-06-18T09:57:58.732Z,8.70
2023-06-18T09:59:32.293Z,8.19
2023-06-18T10:00:56.108Z,7.95
2023-06-18T10:02:40.787Z,7.97
2023-06-18T10:04:14.103Z,7.98
2023-06-18T10:05:43.286Z,7.61
2023-06-18T10:07:18.331Z,7.16
2023-06-18T10:08:54.582Z,8.05
2023-06-18T10:10:28.048Z,7.73
2023-06-18T10:12:08.734Z,7.48
2023-06-18T10:13:42.791Z,7.03
2023-06-18T10:15:30.424Z,7.88
2023-06-18T10:17:04.269Z,7.81
2023-06-18T10:18:28.123Z,7.22
2023-06-18T10:20:05.243Z,7.30
2023-06-18T10:21:51.282Z,7.58
2023-06-18T10:23:25.257Z,7.52
2023-06-18T10:25:10.212Z,7.05
2023-06-18T10:26:54.279Z,6.90
2023-06-18T10:28:27.899Z,7.15
2023-06-18T10:30:08.754Z,7.41
2023-06-18T10:31:35.329Z,7.25
2023-06-18T10:33:20.157Z,6.95
2023-06-18T10:35:11.717Z,7.00
2023-06-18T10:36:45.462Z,7.09
2023-06-18T10:38:07.071Z,6.64
2023-06-18T10:39:52.545Z,7.54
2023-06-18T10:41:28.164Z,7.65
2023-06-18T10:43:03.925Z,7.02
2023-06-18T10:44:55.584Z,7.67
2023-06-18T10:46:40.917Z,7.35
2023-06-18T10:48:31.729Z,8.12
2023-06-18T10:50:25.287Z,7.94
2023-06-18T10:52:17.686Z,7.28
2023-06-18T10:53:44.416Z,7.23
2023-06-18T10:55:31.471Z,7.00
2023-06-18T10:57:05.140Z,7.42
2023-06-18T10:58:40.689Z,6.67
2023-06-18T11:00:32.777Z,7.32
2023-06-18T11:02:13.466Z,8.36
2023-06-18T11:03:54.590Z,8.14
2023-06-18T11:05:20.862Z,7.98
2023-06-18T11:07:15.902Z,7.71
2023-06-18T11:08:56.320Z,8.25
2023-06-18T11:10:30.082Z,7.54
2023-06-18T11:12:03.340Z,8.29
2023-06-18T11:13:37.396Z,8.07
2023-06-18T11:15:10.777Z,7.70
2023-06-18T11:16:42.136Z,7.78
2023-06-18T11:18:26.990Z,8.01
2023-06-18T11:20:13.161Z,8.39
2023-06-18T11:21:47.078Z,8.35
2023-06-18T11:23:20.503Z,8.95
2023-06-18T11:24:53.916Z,9.26
2023-06-18T11:26:28.353Z,10.05
2023-06-18T11:28:04.593Z,9.58
2023-06-18T11:29:58.929Z,9.42
2023-06-18T11:31:44.870Z,9.25
2023-06-18T11:33:20.496Z,9.13
2023-06-18T11:45:18.846Z,8.57
2023-06-18T11:47:05.607Z,9.53
2023-06-18T11:48:39.612Z,8.90
2023-06-18T11:50:25.324Z,9.50
2023-06-18T11:52:14.453Z,9.19
2023-06-18T11:53:55.103Z,10.23
2023-06-18T11:55:31.294Z,9.43
2023-06-18T11:57:16.844Z,8.98
2023-06-18T11:58:56.032Z,8.87
2023-06-18T12:00:30.813Z,9.48
2023-06-18T12:01:52.894Z,8.80
2023-06-18T12:05:49.882Z,8.93
2023-06-18T12:07:31.132Z,9.13
2023-06-18T12:09:19.757Z,8.88
2023-06-18T12:11:05.155Z,8.57
2023-06-18T12:12:59.548Z,7.90
2023-06-18T12:14:44.398Z,8.40
2023-06-18T12:16:38.560Z,8.09
2023-06-18T12:18:33.551Z,7.71
2023-06-18T12:20:27.536Z,7.99
2023-06-18T12:22:03.322Z,7.35
2023-06-18T12:23:53.590Z,7.08
2023-06-18T12:25:47.387Z,6.47
2023-06-18T12:27:41.545Z,6.37
2023-06-18T12:29:35.109Z,6.99
2023-06-18T12:31:12.713Z,6.67
2023-06-18T12:32:46.155Z,6.38
2023-06-18T12:34:23.839Z,5.75
2023-06-18T12:36:14.070Z,6.87
2023-06-18T12:37:55.575Z,6.82
2023-06-18T12:39:42.975Z,5.98
2023-06-18T12:41:28.698Z,5.60
2023-06-18T12:42:57.999Z,6.42
2023-06-18T12:44:31.874Z,5.48
2023-06-18T12:46:03.110Z,6.18
2023-06-18T12:47:57.558Z,6.92
2023-06-18T12:49:51.576Z,7.67
2023-06-18T12:51:46.580Z,7.93
2023-06-18T12:53:39.648Z,8.14
2023-06-18T12:55:27.474Z,8.53
2023-06-18T12:57:01.345Z,9.09
2023-06-18T12:58:47.562Z,9.10
2023-06-18T13:00:42.540Z,8.36
2023-06-18T13:02:17.138Z,7.64
2023-06-18T13:04:02.529Z,9.10
2023-06-18T13:05:38.813Z,8.44
2023-06-18T13:07:12.232Z,7.73
2023-06-18T13:08:41.553Z,7.71
2023-06-18T13:10:26.700Z,7.59
2023-06-18T13:12:00.790Z,7.65
2023-06-18T13:13:34.339Z,7.00
2023-06-18T13:15:07.666Z,6.09
2023-06-18T13:17:04.010Z,5.82
2023-06-18T13:18:47.561Z,5.86
2023-06-18T13:20:28.603Z,6.28
2023-06-18T13:22:04.783Z,5.98
2023-06-18T13:23:58.361Z,6.70
2023-06-18T13:25:41.544Z,6.84
2023-06-18T13:27:31.921Z,7.05
2023-06-18T13:29:17.112Z,6.78
2023-06-18T13:30:58.049Z,6.84
2023-06-18T13:32:52.387Z,7.18
2023-06-18T13:34:47.561Z,6.47
2023-06-18T13:36:23.080Z,5.89
2023-06-18T13:38:12.123Z,5.27
2023-06-18T13:39:53.048Z,6.05
2023-06-18T13:41:42.004Z,5.24
2023-06-18T13:43:15.376Z,5.58
2023-06-18T13:45:00.413Z,5.29
2023-06-18T13:46:54.261Z,4.87
2023-06-18T13:48:49.556Z,5.41
2023-06-18T13:50:35.229Z,5.59
2023-06-18T13:52:08.760Z,6.17
2023-06-18T13:53:42.061Z,6.31
2023-06-18T13:55:27.265Z,6.89
2023-06-18T13:57:00.731Z,7.04
2023-06-18T13:58:41.595Z,6.51
2023-06-18T14:00:34.653Z,6.33
2023-06-18T14:02:27.926Z,6.55
2023-06-18T14:04:13.922Z,6.46
2023-06-18T14:05:59.027Z,7.06
2023-06-18T14:07:33.632Z,6.47
2023-06-18T14:09:20.136Z,6.93
2023-06-18T14:10:56.831Z,7.35
2023-06-18T14:12:47.224Z,7.71
2023-06-18T14:14:29.541Z,7.68
2023-06-18T14:16:15.222Z,7.58
2023-06-18T14:18:00.219Z,7.77
2023-06-18T14:19:45.468Z,7.22
2023-06-18T14:21:23.296Z,7.32
2023-06-18T14:23:08.562Z,6.96
2023-06-18T14:24:54.900Z,8.14
2023-06-18T14:26:36.115Z,7.92
2023-06-18T14:28:31.573Z,8.33
2023-06-18T14:30:18.659Z,8.06
2023-06-18T14:31:52.503Z,7.94
2023-06-18T14:33:37.572Z,9.01
2023-06-18T14:35:13.701Z,9.13
2023-06-18T14:36:58.693Z,8.58
2023-06-18T14:38:27.978Z,8.72
2023-06-18T14:39:50.164Z,8.52
2023-06-18T14:41:19.134Z,8.85
2023-06-18T14:43:01.575Z,9.52
2023-06-18T14:44:49.589Z,9.07
2023-06-18T14:46:30.625Z,9.47
2023-06-18T14:48:15.565Z,9.87
2023-06-18T14:50:05.906Z,9.58
2023-06-18T14:51:39.287Z,10.36
2023-06-18T14:53:17.618Z,10.22
2023-06-18T14:54:51.070Z,10.26
2023-06-18T14:56:38.361Z,10.67
2023-06-18T14:58:11.649Z,10.11
2023-06-18T14:59:56.628Z,10.93
2023-06-18T15:01:20.841Z,10.00
2023-06-18T15:03:06.407Z,10.36
2023-06-18T15:04:50.543Z,10.51
2023-06-18T15:06:40.785Z,10.86
2023-06-18T15:08:35.630Z,11.06
2023-06-18T15:10:22.536Z,9.53
2023-06-18T15:11:58.746Z,9.84
2023-06-18T15:13:40.283Z,10.47
2023-06-18T15:15:04.385Z,10.42
2023-06-18T15:16:26.635Z,9.98
2023-06-18T15:18:07.898Z,9.86
2023-06-18T15:19:52.586Z,10.61
2023-06-18T15:21:24.026Z,11.09
2023-06-18T15:22:57.530Z,10.46
2023-06-18T15:24:33.835Z,10.71
2023-06-18T15:26:07.446Z,10.50
2023-06-18T15:27:40.798Z,10.70
2023-06-18T15:29:28.983Z,10.57
2023-06-18T15:31:15.216Z,10.12
2023-06-18T15:33:00.707Z,10.25
2023-06-18T15:34:41.671Z,10.77
2023-06-18T15:36:15.221Z,10.41
2023-06-18T15:38:02.573Z,10.95
2023-06-18T15:39:48.679Z,11.37
2023-06-18T15:41:34.852Z,11.33
2023-06-18T15:43:15.994Z,10.38
2023-06-18T15:44:51.457Z,11.27
2023-06-18T15:46:39.634Z,11.23
2023-06-18T15:48:26.945Z,11.40
2023-06-18T15:50:12.678Z,10.36
2023-06-18T15:51:41.869Z,11.46
2023-06-18T15:53:30.320Z,11.21
2023-06-18T15:55:03.968Z,10.92
2023-06-18T15:56:44.972Z,9.88
2023-06-18T15:58:11.445Z,9.19
2023-06-18T15:59:58.662Z,10.01
2023-06-18T16:01:33.438Z,10.16
2023-06-18T16:03:14.671Z,10.56
2023-06-18T16:05:01.586Z,10.14
2023-06-18T16:06:44.553Z,10.08
2023-06-18T16:08:17.809Z,10.13
2023-06-18T16:09:56.056Z,10.12
2023-06-18T16:11:43.408Z,10.29
2023-06-18T16:13:37.070Z,9.88
2023-06-18T16:15:17.850Z,9.19
2023-06-18T16:16:49.048Z,9.17
2023-06-18T16:18:22.793Z,9.50
2023-06-18T16:20:04.812Z,9.24
2023-06-18T16:21:38.636Z,9.87
2023-06-18T16:23:24.065Z,9.02
2023-06-18T16:24:57.809Z,9.41
2023-06-18T16:26:31.629Z,9.07
2023-06-18T16:28:17.638Z,9.67
2023-06-18T16:30:03.209Z,9.73
2023-06-18T16:31:50.169Z,9.33
2023-06-18T16:33:14.572Z,8.58
2023-06-18T16:34:59.363Z,8.95
2023-06-18T16:36:33.584Z,9.08
2023-06-18T16:38:04.170Z,9.52
2023-06-18T16:39:28.739Z,8.98
2023-06-18T16:41:04.471Z,9.05
2023-06-18T16:42:26.952Z,9.83
2023-06-18T16:44:00.648Z,9.76
2023-06-18T16:45:43.626Z,10.06
2023-06-18T16:47:19.281Z,10.32
2023-06-18T16:49:04.498Z,9.89
2023-06-18T16:50:45.396Z,9.28
2023-06-18T16:52:30.501Z,9.04
2023-06-18T16:54:04.045Z,9.36
2023-06-18T16:55:58.591Z,8.81
2023-06-18T16:57:33.716Z,8.81
2023-06-18T16:59:14.374Z,8.83
2023-06-18T17:01:00.129Z,8.35
2023-06-18T17:02:34.341Z,8.09
2023-06-18T17:04:10.162Z,8.81
2023-06-18T17:05:36.269Z,8.62
2023-06-18T17:07:09.304Z,7.38
2023-06-18T17:08:43.033Z,8.84
2023-06-18T17:10:37.612Z,8.06
2023-06-18T17:12:06.613Z,8.18
2023-06-18T17:13:47.680Z,8.91
2023-06-18T17:15:28.824Z,9.40
2023-06-18T17:17:09.795Z,9.10
2023-06-18T17:18:45.797Z,9.04
2023-06-18T17:20:09.391Z,8.86
2023-06-18T17:21:45.606Z,9.17
2023-06-18T17:23:17.000Z,9.37
2023-06-18T17:24:50.507Z,9.41
2023-06-18T17:26:35.542Z,9.08
2023-06-18T17:28:04.748Z,8.85
2023-06-18T17:29:41.707Z,8.87
2023-06-18T17:31:03.840Z,9.30
2023-06-18T17:32:38.110Z,9.17
2023-06-18T17:34:24.478Z,9.62
2023-06-18T17:36:19.605Z,9.34
2023-06-18T17:37:53.929Z,9.50
2023-06-18T17:39:18.253Z,9.56
2023-06-18T17:41:03.629Z,9.23
2023-06-18T17:42:42.018Z,10.13
2023-06-18T17:44:18.779Z,9.89
2023-06-18T17:46:12.549Z,9.87
2023-06-18T17:47:58.219Z,9.62
2023-06-18T17:49:38.915Z,9.84
2023-06-18T17:51:33.623Z,9.76
2023-06-18T17:53:27.606Z,9.71
2023-06-18T17:55:12.423Z,10.74
2023-06-18T17:56:47.779Z,9.60
2023-06-18T17:58:33.014Z,10.03
2023-06-18T18:00:02.373Z,9.82
2023-06-18T18:01:38.060Z,9.68
2023-06-18T18:03:11.888Z,10.42
2023-06-18T18:04:47.382Z,10.70
2023-06-18T18:06:21.612Z,10.01
2023-06-18T18:07:57.506Z,9.44
2023-06-18T18:09:42.617Z,10.35
2023-06-18T18:11:27.869Z,10.04
2023-06-18T18:13:04.750Z,9.81
2023-06-18T18:14:50.931Z,9.63
2023-06-18T18:16:25.250Z,10.16
2023-06-18T18:18:10.609Z,9.65
2023-06-18T18:19:56.007Z,10.01
2023-06-18T18:21:36.911Z,10.69
2023-06-18T18:23:05.745Z,10.87
2023-06-18T18:24:39.286Z,11.14
2023-06-18T18:27:42.805Z,11.10
2023-06-18T18:29:37.662Z,11.29
2023-06-18T18:31:14.189Z,10.58
2023-06-18T18:32:48.109Z,10.10
2023-06-18T18:34:21.597Z,11.01
2023-06-18T18:35:54.969Z,10.98
2023-06-18T18:37:28.724Z,11.11
2023-06-18T18:39:13.618Z,10.93
2023-06-18T18:40:54.544Z,11.12
2023-06-18T18:42:28.388Z,11.08
2023-06-18T18:44:01.956Z,10.90
2023-06-18T18:45:42.815Z,11.70
2023-06-18T18:47:27.726Z,11.72
2023-06-18T18:49:12.679Z,11.57
2023-06-18T18:50:57.750Z,12.44
2023-06-18T18:52:40.521Z,13.03
2023-06-18T18:54:21.778Z,13.06
2023-06-18T18:55:56.711Z,12.62
2023-06-18T18:57:33.490Z,11.94
2023-06-18T18:59:22.041Z,11.26
2023-06-18T19:00:57.518Z,11.60
2023-06-18T19:02:19.765Z,11.91
2023-06-18T19:04:05.120Z,11.58
2023-06-18T19:05:26.699Z,12.14
2023-06-18T19:07:11.867Z,11.35
2023-06-18T19:08:45.799Z,11.39
2023-06-18T19:10:15.247Z,11.50
2023-06-18T19:12:00.738Z,11.36
2023-06-18T19:13:34.083Z,10.38
2023-06-18T19:15:18.905Z,10.63
2023-06-18T19:17:04.019Z,11.22
2023-06-18T19:18:51.159Z,11.44
2023-06-18T19:20:32.704Z,11.53
2023-06-18T19:22:06.304Z,11.28
2023-06-18T19:23:40.102Z,11.82
2023-06-18T19:25:23.643Z,11.23
2023-06-18T19:27:04.831Z,11.08
2023-06-18T19:28:48.641Z,11.78
2023-06-18T19:30:33.614Z,12.27
2023-06-18T19:32:14.364Z,12.40
2023-06-18T19:33:59.660Z,12.40
2023-06-18T19:35:45.034Z,12.65
2023-06-18T19:37:29.788Z,12.87
2023-06-18T19:39:11.073Z,12.31
2023-06-18T19:40:37.642Z,12.45
2023-06-18T19:41:59.528Z,12.52
2023-06-18T19:43:41.131Z,12.55
2023-06-18T19:45:15.476Z,12.72
2023-06-18T19:46:47.454Z,12.77
2023-06-18T19:48:23.217Z,12.56
2023-06-18T19:49:58.630Z,12.90
2023-06-18T19:51:32.748Z,13.66
2023-06-18T19:53:03.794Z,13.61
2023-06-18T19:54:48.065Z,12.83
2023-06-18T19:56:42.690Z,12.76
2023-06-18T19:58:18.068Z,12.79
2023-06-18T20:00:03.214Z,12.38
2023-06-18T20:01:55.774Z,12.90
2023-06-18T20:03:50.694Z,12.86
2023-06-18T20:05:44.167Z,12.79
2023-06-18T20:07:29.638Z,12.51
2023-06-18T20:09:24.075Z,13.60
2023-06-18T20:10:57.358Z,14.51
2023-06-18T20:12:33.640Z,13.59
2023-06-18T20:14:14.947Z,13.75
2023-06-18T20:15:57.262Z,13.65
2023-06-18T20:17:43.869Z,13.40
2023-06-18T20:19:17.924Z,13.31
2023-06-18T20:21:02.427Z,13.49
2023-06-18T20:22:50.491Z,14.04
2023-06-18T20:24:32.548Z,14.89
2023-06-18T20:26:17.579Z,14.36
2023-06-18T20:28:01.503Z,14.38
2023-06-18T20:29:42.781Z,14.39
2023-06-18T20:31:22.797Z,13.08
2023-06-18T20:32:47.170Z,13.49
2023-06-18T20:34:09.209Z,12.96
2023-06-18T20:35:33.745Z,13.48
2023-06-18T20:37:06.964Z,13.58
2023-06-18T20:38:40.475Z,13.07
2023-06-18T20:40:09.384Z,13.48
2023-06-18T20:41:43.525Z,13.23
2023-06-18T20:43:07.497Z,13.82
2023-06-18T20:44:43.712Z,12.84
2023-06-18T20:46:29.464Z,12.09
2023-06-18T20:48:03.133Z,13.56
2023-06-18T20:49:37.684Z,13.01
2023-06-18T20:51:22.604Z,14.27
2023-06-18T20:53:03.593Z,13.77
2023-06-18T20:54:42.237Z,13.06
2023-06-18T20:56:15.923Z,12.99
2023-06-18T20:58:00.929Z,12.67
2023-06-18T20:59:46.514Z,12.43
2023-06-18T21:01:41.770Z,12.19
2023-06-18T21:03:28.527Z,13.88
2023-06-18T21:05:02.546Z,13.46
2023-06-18T21:06:36.438Z,13.39
2023-06-18T21:08:10.368Z,14.94
2023-06-18T21:10:04.133Z,14.99
2023-06-18T21:11:28.752Z,14.41
2023-06-18T21:12:58.463Z,16.27
2023-06-18T21:14:43.916Z,17.00
2023-06-18T21:16:15.748Z,16.83
2023-06-18T21:17:51.297Z,17.66
2023-06-18T21:19:25.079Z,16.55
2023-06-18T21:20:58.848Z,15.80
2023-06-18T21:22:35.386Z,16.46
2023-06-18T21:23:59.343Z,15.63
2023-06-18T21:25:21.883Z,14.78
2023-06-18T21:26:50.793Z,15.73
2023-06-18T21:28:25.131Z,16.08
2023-06-18T21:29:58.633Z,16.76
2023-06-18T21:31:44.005Z,18.74
2023-06-18T21:33:37.530Z,20.63
2023-06-18T21:35:31.747Z,23.56
2023-06-18T21:37:16.989Z,23.32
2023-06-18T21:39:02.050Z,20.66
2023-06-18T21:40:56.800Z,19.12
2023-06-18T21:42:26.432Z,19.05
2023-06-18T21:44:12.158Z,18.97
2023-06-18T21:45:57.710Z,18.92
2023-06-18T21:47:44.235Z,17.71
2023-06-18T21:49:18.607Z,20.01
2023-06-18T21:51:04.214Z,18.32
2023-06-18T21:52:30.793Z,18.50
2023-06-18T21:54:06.649Z,17.89
2023-06-18T21:55:52.772Z,16.81
2023-06-18T21:57:46.336Z,17.65
2023-06-18T21:59:34.922Z,17.68
2023-06-18T22:01:08.618Z,17.10
2023-06-18T22:02:53.837Z,15.95
2023-06-18T22:04:18.515Z,16.44